Time;durP1;ratioP1;P1;durP2;ratioP2;P2;SDS_P1;SDS_P2;PMS_P1;PMS_P2;Temp;Humidity;BMP_temperature;BMP_pressure;BME280_temperature;BME280_humidity;BME280_pressure;Samples;Min_cycle;Max_cycle;Signal;HPM_P1;HPM_P2
2021/07/03 00:00:17;;;;;;;14.20;8.13;;;19.70;76.00;;;;;;6248875;22;20026;-85
2021/07/03 00:02:44;;;;;;;10.18;7.82;;;19.70;76.00;;;;;;6248359;22;20469;-86
2021/07/03 00:05:11;;;;;;;12.50;8.48;;;19.70;76.00;;;;;;6250673;22;20093;-84
2021/07/03 00:07:38;;;;;;;9.38;7.68;;;19.70;76.00;;;;;;6250385;22;20087;-86
2021/07/03 00:10:06;;;;;;;13.00;7.88;;;19.70;76.10;;;;;;6250397;22;20015;-85
2021/07/03 00:12:34;;;;;;;9.38;7.88;;;19.70;76.20;;;;;;6275763;22;20091;-84
2021/07/03 00:15:03;;;;;;;7.85;6.40;;;19.70;76.30;;;;;;6250841;22;20486;-85
2021/07/03 00:17:30;;;;;;;11.52;8.00;;;19.70;76.40;;;;;;6250364;22;20015;-86
2021/07/03 00:19:57;;;;;;;11.45;7.70;;;19.70;76.40;;;;;;6250578;22;20055;-85
2021/07/03 00:22:24;;;;;;;10.20;8.30;;;19.70;76.50;;;;;;6250421;22;20087;-84
2021/07/03 00:24:52;;;;;;;10.05;7.55;;;19.70;76.70;;;;;;6277506;22;20032;-85
2021/07/03 00:27:19;;;;;;;10.13;8.25;;;19.70;76.90;;;;;;6250340;22;20091;-84
2021/07/03 00:29:46;;;;;;;12.05;8.57;;;19.70;77.10;;;;;;6250407;22;20016;-85
2021/07/03 00:32:13;;;;;;;11.05;8.18;;;19.60;77.20;;;;;;6250002;22;20480;-85
2021/07/03 00:34:40;;;;;;;9.15;7.78;;;19.60;77.40;;;;;;6250368;22;20387;-85
2021/07/03 00:37:08;;;;;;;8.77;7.85;;;19.60;77.50;;;;;;6250859;22;20019;-84
2021/07/03 00:39:35;;;;;;;12.93;8.63;;;19.50;77.70;;;;;;6250442;22;20016;-84
2021/07/03 00:42:02;;;;;;;12.57;7.80;;;19.50;77.80;;;;;;6249898;22;20365;-84
2021/07/03 00:44:34;;;;;;;12.98;7.85;;;19.50;77.90;;;;;;6250151;22;20362;-84
2021/07/03 00:47:01;;;;;;;11.25;7.85;;;19.50;78.00;;;;;;6275562;22;20090;-85
2021/07/03 00:49:29;;;;;;;13.63;8.02;;;19.40;78.10;;;;;;6250363;22;20027;-84
2021/07/03 00:51:56;;;;;;;16.73;8.50;;;19.40;78.20;;;;;;6249890;22;20041;-84
2021/07/03 00:54:24;;;;;;;9.70;7.53;;;19.40;78.40;;;;;;6275197;22;20340;-85
2021/07/03 00:57:03;;;;;;;10.77;8.00;;;19.40;78.40;;;;;;6250266;22;20041;-85
2021/07/03 00:59:37;;;;;;;10.85;8.05;;;19.40;78.50;;;;;;6249762;22;20024;-84
2021/07/03 01:02:05;;;;;;;;;;;19.40;78.60;;;;;;6250414;22;20086;-85
2021/07/03 01:04:32;;;;;;;13.52;8.02;;;19.30;78.60;;;;;;6249685;22;19915;-84
2021/07/03 01:07:02;;;;;;;9.32;6.93;;;19.30;78.70;;;;;;6275914;22;20097;-85
2021/07/03 01:09:29;;;;;;;12.13;7.65;;;19.30;78.70;;;;;;6275307;22;20022;-84
2021/07/03 01:11:56;;;;;;;10.20;7.82;;;19.30;78.70;;;;;;6249823;22;20458;-85
2021/07/03 01:14:23;;;;;;;11.30;8.52;;;19.30;78.70;;;;;;6275503;22;20115;-85
2021/07/03 01:16:52;;;;;;;13.15;8.25;;;19.30;78.70;;;;;;6249946;22;20363;-85
2021/07/03 01:19:19;;;;;;;12.95;7.50;;;19.30;78.70;;;;;;6250070;22;20015;-84
2021/07/03 01:21:56;;;;;;;13.43;8.18;;;19.30;78.70;;;;;;6276921;22;20094;-85
2021/07/03 01:24:24;;;;;;;11.52;7.85;;;19.30;78.60;;;;;;6250212;22;20111;-85
2021/07/03 01:26:54;;;;;;;9.80;8.20;;;19.30;78.60;;;;;;6249525;22;20388;-86
2021/07/03 01:29:24;;;;;;;11.05;8.82;;;19.30;78.60;;;;;;6249731;22;20016;-85
2021/07/03 01:31:54;;;;;;;13.95;7.80;;;19.20;78.50;;;;;;6249871;22;20525;-86
2021/07/03 01:34:24;;;;;;;12.90;8.65;;;19.30;78.60;;;;;;6249662;22;20059;-85
2021/07/03 01:36:51;;;;;;;10.32;8.10;;;19.20;78.50;;;;;;6249666;22;20078;-85
2021/07/03 01:39:19;;;;;;;13.77;8.68;;;19.20;78.60;;;;;;6275107;22;20086;-85
2021/07/03 01:41:46;;;;;;;18.27;8.02;;;19.20;78.50;;;;;;6250286;22;20019;-85
2021/07/03 01:44:19;;;;;;;9.88;8.07;;;19.20;78.50;;;;;;6249674;22;20083;-85
2021/07/03 01:46:46;;;;;;;16.40;9.23;;;19.20;78.60;;;;;;6249961;22;20518;-86
2021/07/03 01:49:14;;;;;;;12.18;8.05;;;19.20;78.50;;;;;;6249577;22;20071;-84
2021/07/03 01:51:41;;;;;;;10.10;8.32;;;19.20;78.60;;;;;;6249849;22;20546;-85
2021/07/03 01:54:08;;;;;;;13.38;8.05;;;19.20;78.60;;;;;;6250184;22;20026;-85
2021/07/03 01:56:39;;;;;;;19.48;8.77;;;19.10;78.70;;;;;;6249278;22;20020;-85
2021/07/03 01:59:06;;;;;;;9.63;8.27;;;19.10;78.70;;;;;;6274939;22;20466;-85
2021/07/03 02:01:34;;;;;;;10.23;7.85;;;19.10;78.80;;;;;;6248985;22;20024;-85
2021/07/03 02:04:02;;;;;;;10.05;7.78;;;19.00;78.90;;;;;;6250059;22;20020;-85
2021/07/03 02:06:29;;;;;;;12.50;7.95;;;19.00;78.90;;;;;;6249594;22;20018;-85
2021/07/03 02:08:57;;;;;;;10.05;8.52;;;19.00;79.00;;;;;;6274813;22;20514;-85
2021/07/03 02:11:24;;;;;;;12.65;8.02;;;19.00;79.00;;;;;;6249202;22;20011;-85
2021/07/03 02:13:51;;;;;;;10.27;8.07;;;19.00;79.10;;;;;;6249467;22;20339;-85
2021/07/03 02:16:18;;;;;;;18.13;8.75;;;18.90;79.10;;;;;;6249195;22;20098;-85
2021/07/03 02:18:45;;;;;;;13.52;8.07;;;18.90;79.00;;;;;;6249310;22;20016;-84
2021/07/03 02:21:12;;;;;;;11.90;8.43;;;18.90;79.00;;;;;;6276638;22;20012;-85
2021/07/03 02:23:39;;;;;;;13.07;8.85;;;18.90;79.00;;;;;;6249220;22;20090;-84
2021/07/03 02:26:06;;;;;;;14.35;8.20;;;18.90;79.00;;;;;;6248937;22;20095;-85
2021/07/03 02:28:34;;;;;;;13.88;8.00;;;18.90;79.00;;;;;;6249256;22;20552;-84
2021/07/03 02:31:01;;;;;;;10.75;8.32;;;18.90;79.10;;;;;;6276161;22;20057;-85
2021/07/03 02:33:28;;;;;;;12.27;8.48;;;18.90;79.10;;;;;;6249221;22;20023;-85
2021/07/03 02:35:55;;;;;;;14.40;7.90;;;18.90;79.10;;;;;;6249027;22;20055;-84
2021/07/03 02:38:22;;;;;;;13.68;7.85;;;18.90;79.10;;;;;;6249222;22;20094;-85
2021/07/03 02:40:50;;;;;;;12.45;7.78;;;18.90;79.10;;;;;;6249337;22;20019;-84
2021/07/03 02:43:17;;;;;;;10.02;7.97;;;18.90;79.00;;;;;;6249100;22;20016;-85
2021/07/03 02:45:44;;;;;;;12.50;7.63;;;18.90;79.00;;;;;;6276236;22;20016;-83
2021/07/03 02:48:11;;;;;;;13.18;7.97;;;18.90;79.10;;;;;;6249001;22;20475;-85
2021/07/03 02:50:38;;;;;;;18.13;8.25;;;18.90;79.10;;;;;;6249098;22;20095;-85
2021/07/03 02:53:06;;;;;;;15.13;8.23;;;18.90;79.10;;;;;;6249069;22;20016;-85
2021/07/03 02:55:33;;;;;;;13.82;8.15;;;18.90;79.20;;;;;;6249411;22;20103;-85
2021/07/03 02:58:00;;;;;;;9.88;7.88;;;18.90;79.20;;;;;;6248709;22;20027;-85
2021/07/03 03:00:27;;;;;;;10.30;7.60;;;18.80;79.20;;;;;;6248724;22;20093;-85
2021/07/03 03:02:54;;;;;;;9.80;7.53;;;18.80;79.20;;;;;;6249204;22;20486;-86
2021/07/03 03:05:22;;;;;;;10.00;8.05;;;18.80;79.30;;;;;;6276140;22;20016;-86
2021/07/03 03:07:49;;;;;;;13.88;8.38;;;18.80;79.30;;;;;;6248966;22;20362;-86
2021/07/03 03:10:18;;;;;;;13.60;9.05;;;18.80;79.40;;;;;;6249346;22;20087;-85
2021/07/03 03:12:47;;;;;;;11.48;7.82;;;18.80;79.40;;;;;;6249243;22;20091;-85
2021/07/03 03:15:15;;;;;;;14.48;7.82;;;18.80;79.30;;;;;;6249037;22;20039;-86
2021/07/03 03:17:43;;;;;;;10.80;8.45;;;18.80;79.20;;;;;;6249726;22;20023;-85
2021/07/03 03:20:12;;;;;;;10.10;7.63;;;18.70;79.20;;;;;;6275783;22;20022;-86
2021/07/03 03:22:41;;;;;;;10.85;7.60;;;18.80;79.20;;;;;;6248889;22;20083;-85
2021/07/03 03:25:10;;;;;;;11.27;7.68;;;18.70;79.20;;;;;;6249171;22;20020;-86
2021/07/03 03:27:37;;;;;;;11.23;7.28;;;18.70;79.30;;;;;;6249187;22;20526;-86
2021/07/03 03:30:06;;;;;;;14.57;7.88;;;18.70;79.30;;;;;;6248457;22;20022;-85
2021/07/03 03:32:34;;;;;;;8.30;6.90;;;18.70;79.30;;;;;;6248996;22;20015;-86
2021/07/03 03:35:02;;;;;;;9.75;7.07;;;18.70;79.30;;;;;;6249132;22;20020;-85
2021/07/03 03:37:29;;;;;;;14.82;7.20;;;18.60;79.20;;;;;;6249504;22;20365;-86
2021/07/03 03:39:56;;;;;;;11.07;7.07;;;18.70;79.20;;;;;;6251224;22;20422;-86
2021/07/03 03:42:23;;;;;;;11.45;7.15;;;18.70;79.20;;;;;;6251097;22;20391;-85
2021/07/03 03:44:50;;;;;;;9.50;6.65;;;18.60;79.10;;;;;;6250527;22;20019;-85
2021/07/03 03:47:18;;;;;;;15.90;7.20;;;18.60;79.10;;;;;;6250784;22;20355;-86
2021/07/03 03:49:45;;;;;;;14.07;6.78;;;18.60;79.00;;;;;;6251613;22;20023;-87
2021/07/03 03:52:12;;;;;;;9.18;6.57;;;18.60;78.90;;;;;;6250690;22;20090;-86
2021/07/03 03:54:39;;;;;;;11.30;6.88;;;18.60;78.90;;;;;;6250827;22;20019;-85
2021/07/03 03:57:22;;;;;;;14.35;7.22;;;18.50;78.80;;;;;;6276701;22;20040;-85
2021/07/03 03:59:51;;;;;;;14.02;7.18;;;18.50;78.70;;;;;;6250522;22;20039;-86
2021/07/03 04:02:18;;;;;;;15.05;6.88;;;18.50;78.60;;;;;;6250568;22;20026;-85
2021/07/03 04:04:45;;;;;;;8.00;6.63;;;18.50;78.50;;;;;;6250571;22;20480;-86
2021/07/03 04:07:13;;;;;;;9.88;6.60;;;18.40;78.50;;;;;;6250692;22;20458;-86
2021/07/03 04:09:40;;;;;;;11.57;6.70;;;18.40;78.60;;;;;;6250887;22;20357;-86
2021/07/03 04:12:07;;;;;;;9.40;6.90;;;18.40;78.50;;;;;;6250511;22;20087;-86
2021/07/03 04:14:35;;;;;;;8.07;6.97;;;18.40;78.50;;;;;;6250811;22;20022;-86
2021/07/03 04:17:03;;;;;;;9.63;6.88;;;18.40;78.60;;;;;;6250920;22;20219;-86
2021/07/03 04:19:31;;;;;;;8.73;6.60;;;18.40;78.60;;;;;;6250524;22;20058;-86
2021/07/03 04:21:59;;;;;;;11.73;6.57;;;18.40;78.60;;;;;;6250764;22;20328;-86
2021/07/03 04:24:27;;;;;;;13.85;7.05;;;18.40;78.60;;;;;;6251065;22;20016;-86
2021/07/03 04:26:54;;;;;;;13.32;6.88;;;18.30;78.70;;;;;;6249869;22;20012;-87
2021/07/03 04:29:25;;;;;;;12.80;7.28;;;18.30;78.60;;;;;;6251217;22;20069;-86
2021/07/03 04:31:52;;;;;;;12.93;7.35;;;18.30;78.80;;;;;;6250718;22;20086;-86
2021/07/03 04:34:19;;;;;;;10.15;7.15;;;18.30;78.80;;;;;;6250435;22;20016;-86
2021/07/03 04:36:46;;;;;;;10.40;7.45;;;18.20;79.00;;;;;;6250006;22;20390;-86
2021/07/03 04:39:14;;;;;;;11.35;8.27;;;18.30;79.10;;;;;;6250260;22;20090;-87
2021/07/03 04:41:41;;;;;;;17.40;8.80;;;18.20;79.30;;;;;;6250071;22;20048;-86
2021/07/03 04:44:08;;;;;;;11.38;7.68;;;18.20;79.50;;;;;;6250348;22;20015;-87
2021/07/03 04:46:35;;;;;;;8.88;7.15;;;18.30;79.60;;;;;;6250313;22;20522;-86
2021/07/03 04:49:03;;;;;;;8.90;7.30;;;18.20;79.60;;;;;;6249984;22;20024;-87
2021/07/03 04:51:31;;;;;;;12.35;8.00;;;18.20;79.70;;;;;;6250145;22;20081;-86
2021/07/03 04:53:58;;;;;;;14.40;7.95;;;18.20;79.70;;;;;;6250221;22;20090;-86
2021/07/03 04:56:25;;;;;;;9.60;8.05;;;18.20;79.70;;;;;;6250026;22;20036;-86
2021/07/03 04:58:52;;;;;;;12.65;7.70;;;18.20;79.80;;;;;;6249980;22;20469;-85
2021/07/03 05:01:19;;;;;;;12.35;8.23;;;18.10;79.80;;;;;;6244370;23;20054;-86
2021/07/03 05:03:46;;;;;;;10.52;8.00;;;18.20;79.90;;;;;;6219942;23;20016;-86
2021/07/03 05:06:14;;;;;;;10.75;8.68;;;18.20;80.00;;;;;;6219894;23;20115;-85
2021/07/03 05:08:41;;;;;;;9.45;7.85;;;18.20;80.00;;;;;;6219885;23;20019;-86
2021/07/03 05:11:08;;;;;;;14.30;8.23;;;18.20;80.20;;;;;;6219898;23;20039;-86
2021/07/03 05:13:36;;;;;;;12.02;7.32;;;18.20;80.20;;;;;;6219483;23;20020;-86
2021/07/03 05:16:04;;;;;;;11.10;8.05;;;18.10;80.30;;;;;;6220237;23;20024;-86
2021/07/03 05:18:31;;;;;;;13.35;7.65;;;18.10;80.30;;;;;;6219836;23;20398;-86
2021/07/03 05:20:59;;;;;;;9.70;8.38;;;18.10;80.40;;;;;;6220270;23;20018;-86
2021/07/03 05:23:26;;;;;;;9.38;7.13;;;18.10;80.40;;;;;;6219704;23;20020;-86
2021/07/03 05:25:57;;;;;;;12.68;8.18;;;18.10;80.40;;;;;;6219295;23;20012;-85
2021/07/03 05:28:25;;;;;;;12.90;7.43;;;18.10;80.40;;;;;;6219924;23;20094;-85
2021/07/03 05:30:52;;;;;;;12.70;7.82;;;18.10;80.40;;;;;;6246242;23;20111;-85
2021/07/03 05:33:20;;;;;;;14.13;8.00;;;18.10;80.40;;;;;;6219706;23;20039;-86
2021/07/03 05:35:47;;;;;;;16.15;8.35;;;18.10;80.40;;;;;;6219420;23;20099;-86
2021/07/03 05:38:14;;;;;;;13.55;8.38;;;18.10;80.50;;;;;;6219473;23;20493;-85
2021/07/03 05:40:42;;;;;;;10.18;8.05;;;18.20;80.50;;;;;;6218860;23;20094;-85
2021/07/03 05:43:09;;;;;;;13.98;8.27;;;18.10;80.60;;;;;;6219643;23;20048;-85
2021/07/03 05:45:36;;;;;;;10.85;7.82;;;18.20;80.70;;;;;;6244885;23;20020;-86
2021/07/03 05:48:04;;;;;;;10.77;8.48;;;18.20;80.70;;;;;;6219580;23;20016;-86
2021/07/03 05:50:31;;;;;;;12.48;8.15;;;18.20;80.80;;;;;;6219499;23;20016;-85
2021/07/03 05:52:58;;;;;;;12.32;8.27;;;18.20;80.80;;;;;;6219107;23;20031;-86
2021/07/03 05:55:25;;;;;;;10.45;7.93;;;18.20;80.90;;;;;;6219358;23;20351;-86
2021/07/03 05:57:53;;;;;;;11.48;8.05;;;18.20;81.00;;;;;;6244475;23;20087;-86
2021/07/03 06:00:21;;;;;;;12.02;8.45;;;18.20;81.00;;;;;;6239061;23;20028;-86
2021/07/03 06:02:48;;;;;;;9.82;8.60;;;18.30;81.10;;;;;;6241297;23;20044;-85
2021/07/03 06:05:15;;;;;;;10.27;8.52;;;18.30;81.20;;;;;;6242393;23;20396;-84
2021/07/03 06:07:43;;;;;;;18.20;8.90;;;18.40;81.30;;;;;;6217635;23;20051;-87
2021/07/03 06:10:11;;;;;;;10.77;8.18;;;18.40;81.30;;;;;;6217213;23;20463;-84
2021/07/03 06:12:39;;;;;;;12.77;8.45;;;18.30;81.40;;;;;;6218074;23;20087;-85
2021/07/03 06:15:08;;;;;;;17.33;9.43;;;18.40;81.50;;;;;;6218286;23;20535;-85
2021/07/03 06:17:35;;;;;;;16.48;8.98;;;18.40;81.60;;;;;;6217889;23;20020;-84
2021/07/03 06:20:04;;;;;;;12.32;8.75;;;18.40;81.60;;;;;;6217937;23;20095;-88
2021/07/03 06:22:32;;;;;;;14.52;9.40;;;18.40;81.60;;;;;;6244218;23;20095;-83
2021/07/03 06:24:59;;;;;;;10.85;8.45;;;18.40;81.50;;;;;;6217563;23;20460;-89
2021/07/03 06:27:26;;;;;;;14.55;9.77;;;18.40;81.50;;;;;;6217965;23;20095;-88
2021/07/03 06:29:53;;;;;;;13.52;9.55;;;18.50;81.50;;;;;;6218218;23;20066;-87
2021/07/03 06:32:26;;;;;;;13.95;8.77;;;18.50;81.60;;;;;;6244301;23;20066;-87
2021/07/03 06:34:57;;;;;;;14.40;9.07;;;18.60;81.70;;;;;;6218052;23;20463;-87
2021/07/03 06:37:24;;;;;;;13.73;9.07;;;18.60;81.70;;;;;;6217318;23;20074;-88
2021/07/03 06:39:51;;;;;;;16.17;9.52;;;18.60;81.80;;;;;;6217645;23;20020;-88
2021/07/03 06:42:19;;;;;;;13.75;9.18;;;18.70;81.80;;;;;;6217471;23;20549;-84
2021/07/03 06:44:49;;;;;;;13.02;8.90;;;18.80;81.70;;;;;;6242808;23;20087;-86
2021/07/03 06:47:17;;;;;;;12.98;8.82;;;18.80;81.80;;;;;;6217837;23;20012;-86
2021/07/03 06:49:47;;;;;;;10.88;9.50;;;18.90;81.90;;;;;;6242814;23;20016;-88
2021/07/03 06:52:15;;;;;;;13.82;10.25;;;18.90;81.80;;;;;;6217536;23;20031;-88
2021/07/03 06:54:42;;;;;;;10.70;8.75;;;19.00;81.80;;;;;;6217437;23;20050;-87
2021/07/03 06:57:12;;;;;;;12.93;9.07;;;19.10;81.80;;;;;;6217939;23;20040;-87
2021/07/03 06:59:39;;;;;;;14.57;9.45;;;19.20;81.90;;;;;;6217633;23;20048;-85
2021/07/03 07:02:06;;;;;;;12.82;9.55;;;19.30;81.90;;;;;;6216935;23;20090;-86
2021/07/03 07:04:33;;;;;;;13.63;10.32;;;19.30;81.90;;;;;;6242620;23;20099;-86
2021/07/03 07:07:00;;;;;;;12.40;8.80;;;19.40;81.80;;;;;;6242550;23;20020;-86
2021/07/03 07:09:27;;;;;;;12.85;9.75;;;19.40;81.80;;;;;;6242231;23;20036;-84
2021/07/03 07:11:59;;;;;;;13.68;9.50;;;19.50;81.70;;;;;;6217733;23;20329;-86
2021/07/03 07:14:26;;;;;;;11.57;9.20;;;19.60;81.70;;;;;;6244933;23;20490;-86
2021/07/03 07:16:53;;;;;;;14.15;9.00;;;19.60;81.70;;;;;;6244337;23;20359;-85
2021/07/03 07:19:21;;;;;;;12.52;9.40;;;19.70;81.60;;;;;;6245123;23;20131;-85
2021/07/03 07:21:48;;;;;;;19.58;10.13;;;19.80;81.60;;;;;;6244074;23;20081;-86
2021/07/03 07:24:15;;;;;;;14.07;9.68;;;19.90;81.60;;;;;;6244074;23;20107;-86
2021/07/03 07:26:42;;;;;;;13.00;8.98;;;19.90;81.50;;;;;;6244535;23;20012;-85
2021/07/03 07:29:09;;;;;;;15.50;8.95;;;20.00;81.50;;;;;;6219627;23;20104;-84
2021/07/03 07:31:37;;;;;;;21.77;10.15;;;20.10;81.40;;;;;;6245736;23;20096;-84
2021/07/03 07:34:05;;;;;;;11.55;9.23;;;20.20;81.40;;;;;;6245303;23;20358;-85
2021/07/03 07:36:32;;;;;;;14.77;9.95;;;20.20;81.30;;;;;;6244943;23;20028;-84
2021/07/03 07:38:59;;;;;;;11.65;8.80;;;20.40;81.40;;;;;;6245710;23;20028;-84
2021/07/03 07:41:26;;;;;;;13.60;9.35;;;20.40;81.40;;;;;;6220734;23;20090;-85
2021/07/03 07:43:53;;;;;;;12.95;9.65;;;20.60;81.10;;;;;;6245321;23;20016;-84
2021/07/03 07:46:20;;;;;;;10.70;8.32;;;20.70;80.90;;;;;;6246783;23;20387;-86
2021/07/03 07:48:48;;;;;;;12.25;8.23;;;20.80;80.80;;;;;;6246733;23;20015;-85
2021/07/03 07:51:17;;;;;;;12.85;7.78;;;20.90;80.60;;;;;;6246658;23;20018;-83
2021/07/03 07:53:44;;;;;;;10.25;7.25;;;21.00;80.20;;;;;;6245500;23;20095;-83
2021/07/03 07:56:11;;;;;;;10.60;7.85;;;21.00;79.60;;;;;;6220198;23;20087;-85
2021/07/03 07:58:38;;;;;;;12.35;7.97;;;21.10;79.30;;;;;;6245353;23;20022;-84
2021/07/03 08:01:05;;;;;;;11.85;7.35;;;21.20;79.20;;;;;;6229047;22;20363;-84
2021/07/03 08:03:33;;;;;;;11.73;7.40;;;21.30;79.00;;;;;;6277037;22;20016;-85
2021/07/03 08:06:00;;;;;;;11.93;8.15;;;21.40;78.70;;;;;;6250347;22;20018;-84
2021/07/03 08:08:28;;;;;;;11.50;8.05;;;21.50;78.20;;;;;;6250514;22;20024;-84
2021/07/03 08:10:55;;;;;;;9.20;7.47;;;21.50;78.10;;;;;;6250323;22;20019;-84
2021/07/03 08:13:22;;;;;;;13.13;8.15;;;21.60;78.00;;;;;;6250512;22;20023;-84
2021/07/03 08:15:50;;;;;;;11.02;7.70;;;21.70;77.90;;;;;;6275577;22;20019;-84
2021/07/03 08:18:23;;;;;;;14.88;8.05;;;21.90;78.00;;;;;;6250313;22;20074;-82
2021/07/03 08:20:51;;;;;;;13.93;9.13;;;21.90;77.80;;;;;;6277626;22;20354;-85
2021/07/03 08:23:18;;;;;;;9.57;7.72;;;22.00;77.60;;;;;;6249933;22;20051;-83
2021/07/03 08:25:45;;;;;;;12.27;8.10;;;22.20;77.80;;;;;;6276859;22;20018;-85
2021/07/03 08:28:12;;;;;;;11.02;7.38;;;22.30;77.60;;;;;;6250003;22;20086;-84
2021/07/03 08:30:40;;;;;;;10.38;7.65;;;22.40;77.10;;;;;;6250252;22;20534;-86
2021/07/03 08:33:07;;;;;;;9.93;7.15;;;22.40;76.60;;;;;;6249999;22;20044;-83
2021/07/03 08:35:34;;;;;;;9.15;6.95;;;22.50;76.10;;;;;;6250095;22;20022;-85
2021/07/03 08:38:01;;;;;;;10.70;7.15;;;22.50;75.60;;;;;;6277111;22;20083;-85
2021/07/03 08:40:31;;;;;;;12.90;7.55;;;22.60;74.90;;;;;;6250362;22;20019;-82
2021/07/03 08:42:58;;;;;;;10.95;7.60;;;22.60;74.70;;;;;;6276857;22;20343;-82
2021/07/03 08:45:26;;;;;;;12.57;7.68;;;22.60;74.60;;;;;;6276494;22;20020;-87
2021/07/03 08:47:53;;;;;;;11.15;7.57;;;22.60;74.00;;;;;;6250192;22;20015;-85
2021/07/03 08:50:20;;;;;;;11.93;8.13;;;22.60;73.40;;;;;;6249900;22;20026;-86
2021/07/03 08:52:48;;;;;;;9.38;6.85;;;22.60;73.30;;;;;;6250152;22;20016;-86
2021/07/03 08:55:21;;;;;;;11.13;7.53;;;22.60;73.30;;;;;;6250034;22;20357;-85
2021/07/03 08:57:59;;;;;;;11.75;7.85;;;22.60;73.20;;;;;;6250072;22;20015;-85
2021/07/03 09:00:32;;;;;;;11.15;8.02;;;22.60;73.20;;;;;;6249765;22;20019;-86
2021/07/03 09:03:00;;;;;;;;;;;22.60;73.20;;;;;;6250473;22;20351;-85
2021/07/03 09:05:30;;;;;;;14.88;8.32;;;22.60;73.30;;;;;;6250051;22;19965;-84
2021/07/03 09:08:02;;;;;;;12.10;8.15;;;22.60;72.60;;;;;;6250333;22;20027;-85
2021/07/03 09:10:31;;;;;;;10.05;7.72;;;22.60;72.70;;;;;;6250108;22;20083;-85
2021/07/03 09:12:59;;;;;;;10.77;8.15;;;22.60;73.30;;;;;;6277077;22;20011;-82
2021/07/03 09:15:32;;;;;;;12.30;8.73;;;22.70;74.00;;;;;;6275678;22;20355;-83
2021/07/03 09:18:05;;;;;;;11.95;8.35;;;22.80;74.20;;;;;;6276435;22;20402;-83
2021/07/03 09:20:35;;;;;;;13.45;9.10;;;22.80;74.00;;;;;;6276699;22;20019;-83
2021/07/03 09:23:12;;;;;;;16.20;8.13;;;22.90;73.50;;;;;;6249984;22;20470;-83
2021/07/03 09:25:49;;;;;;;9.52;8.20;;;22.90;72.00;;;;;;6276283;22;20385;-83
2021/07/03 09:28:21;;;;;;;9.57;7.95;;;22.90;71.70;;;;;;6276869;22;20019;-82
2021/07/03 09:30:53;;;;;;;11.43;8.13;;;23.00;71.60;;;;;;6275165;22;20016;-82
2021/07/03 09:33:23;;;;;;;10.52;8.00;;;23.00;71.70;;;;;;6249955;22;20020;-82
2021/07/03 09:35:57;;;;;;;9.75;8.27;;;23.20;71.50;;;;;;6249740;22;20099;-82
2021/07/03 09:38:31;;;;;;;13.30;9.65;;;23.20;71.40;;;;;;6274813;22;20358;-82
2021/07/03 09:41:31;;;;;;;14.55;8.75;;;23.30;71.40;;;;;;6276793;22;20015;-82
2021/07/03 09:44:07;;;;;;;12.23;8.85;;;23.30;71.70;;;;;;6232920;22;20016;-81
2021/07/03 09:46:36;;;;;;;12.02;8.60;;;23.30;71.70;;;;;;6249463;22;20018;-81
2021/07/03 09:49:06;;;;;;;12.05;9.27;;;23.20;71.70;;;;;;6274511;22;20165;-82
2021/07/03 09:51:44;;;;;;;15.50;8.63;;;23.30;71.70;;;;;;6249579;22;20094;-82
2021/07/03 09:54:13;;;;;;;10.32;7.60;;;23.30;71.70;;;;;;6249738;22;20042;-82
2021/07/03 09:56:41;;;;;;;14.38;9.02;;;23.30;71.90;;;;;;6276416;22;20104;-82
2021/07/03 09:59:09;;;;;;;10.13;8.20;;;23.30;72.00;;;;;;6276487;22;20020;-83
2021/07/03 10:01:40;;;;;;;10.80;8.40;;;23.30;71.80;;;;;;6259677;22;20020;-82
2021/07/03 10:04:08;;;;;;;11.23;8.02;;;23.30;71.80;;;;;;6249681;22;20047;-83
2021/07/03 10:06:48;;;;;;;12.43;9.15;;;23.20;71.80;;;;;;6249683;22;20474;-83
2021/07/03 10:09:42;;;;;;;9.98;8.05;;;23.20;71.60;;;;;;6276085;22;20019;-83
2021/07/03 10:12:17;;;;;;;11.75;8.82;;;23.10;71.60;;;;;;6276281;22;20020;-82
2021/07/03 10:14:46;;;;;;;11.27;8.40;;;23.00;71.60;;;;;;6248894;22;20370;-82
2021/07/03 10:17:34;;;;;;;12.02;9.27;;;23.00;71.70;;;;;;6276412;22;20050;-82
2021/07/03 10:20:14;;;;;;;10.48;7.70;;;22.90;71.50;;;;;;6249824;22;20041;-82
2021/07/03 10:23:07;;;;;;;10.50;7.78;;;22.80;71.80;;;;;;6249278;22;20026;-88
2021/07/03 10:25:40;;;;;;;17.08;9.40;;;22.80;72.00;;;;;;6249074;22;20071;-85
2021/07/03 10:28:13;;;;;;;10.25;8.57;;;22.80;72.30;;;;;;6249129;22;20083;-84
2021/07/03 10:30:43;;;;;;;15.25;9.52;;;22.70;72.50;;;;;;6248863;22;20082;-86
2021/07/03 10:33:22;;;;;;;10.27;8.45;;;22.60;72.60;;;;;;6249232;22;20054;-87
2021/07/03 10:35:54;;;;;;;12.57;10.10;;;22.50;72.80;;;;;;6249099;22;20023;-86
2021/07/03 10:38:24;;;;;;;13.82;8.63;;;22.50;73.00;;;;;;6249112;22;20035;-85
2021/07/03 10:41:14;;;;;;;12.02;9.50;;;22.40;73.20;;;;;;6249288;22;20098;-85
2021/07/03 10:43:52;;;;;;;14.68;9.82;;;22.40;73.40;;;;;;6275467;22;20099;-86
2021/07/03 10:46:31;;;;;;;12.20;9.32;;;22.40;73.70;;;;;;6275690;22;20014;-86
2021/07/03 10:49:02;;;;;;;13.15;10.43;;;22.40;74.10;;;;;;6274367;22;20012;-86
2021/07/03 10:51:32;;;;;;;13.73;10.98;;;22.40;74.30;;;;;;6248743;22;20402;-84
2021/07/03 10:54:23;;;;;;;13.98;11.32;;;22.40;74.70;;;;;;6274584;22;20015;-87
2021/07/03 10:57:08;;;;;;;14.32;9.60;;;22.40;75.30;;;;;;6249074;22;20019;-87
2021/07/03 10:59:38;;;;;;;14.77;10.50;;;22.40;75.50;;;;;;6273810;22;20095;-86
2021/07/03 11:02:57;;;;;;;11.85;9.07;;;22.40;75.60;;;;;;6226193;23;20047;-86
2021/07/03 11:05:33;;;;;;;11.27;9.40;;;22.40;75.70;;;;;;6177597;23;20012;-87
2021/07/03 11:08:20;;;;;;;12.90;11.00;;;22.40;75.80;;;;;;6223275;23;20017;-86
2021/07/03 11:10:48;;;;;;;13.60;9.35;;;22.50;75.70;;;;;;6218901;23;20395;-87
2021/07/03 11:13:21;;;;;;;11.80;10.35;;;22.50;75.80;;;;;;6218777;23;20036;-83
2021/07/03 11:15:49;;;;;;;12.13;9.50;;;22.50;75.90;;;;;;6218763;23;20103;-84
2021/07/03 11:18:17;;;;;;;12.43;9.82;;;22.50;75.80;;;;;;6218518;23;20483;-87
2021/07/03 11:20:47;;;;;;;10.10;8.63;;;22.50;75.80;;;;;;6218578;23;20151;-86
2021/07/03 11:23:19;;;;;;;11.95;8.43;;;22.50;75.70;;;;;;6218483;23;20048;-87
2021/07/03 11:25:47;;;;;;;11.95;8.38;;;22.50;75.30;;;;;;6218667;23;20022;-86
2021/07/03 11:28:18;;;;;;;9.15;7.78;;;22.50;74.90;;;;;;6218271;23;20100;-86
2021/07/03 11:30:59;;;;;;;11.07;8.57;;;22.50;74.70;;;;;;6219972;23;20016;-85
2021/07/03 11:33:32;;;;;;;11.27;8.10;;;22.40;74.30;;;;;;6219047;23;20394;-85
2021/07/03 11:36:00;;;;;;;10.50;8.00;;;22.40;74.20;;;;;;6218535;23;20471;-85
2021/07/03 11:38:28;;;;;;;11.32;8.85;;;22.40;74.30;;;;;;6218448;23;20083;-85
2021/07/03 11:41:00;;;;;;;15.50;9.07;;;22.40;74.40;;;;;;6245374;23;20095;-85
2021/07/03 11:43:32;;;;;;;9.88;8.52;;;22.40;74.30;;;;;;6218976;23;20103;-85
2021/07/03 11:46:02;;;;;;;12.13;9.02;;;22.40;74.30;;;;;;6218788;23;20050;-87
2021/07/03 11:48:30;;;;;;;8.50;7.60;;;22.40;74.30;;;;;;6218399;23;20012;-88
2021/07/03 11:51:00;;;;;;;9.48;7.35;;;22.30;74.30;;;;;;6217986;23;20067;-88
2021/07/03 11:53:30;;;;;;;10.32;8.70;;;22.30;74.40;;;;;;6218655;23;20023;-87
2021/07/03 11:56:00;;;;;;;11.25;8.90;;;22.30;74.60;;;;;;6218241;23;20020;-86
2021/07/03 11:58:30;;;;;;;13.05;9.57;;;22.30;74.70;;;;;;6219029;23;20396;-85
2021/07/03 12:01:06;;;;;;;9.45;8.23;;;22.30;74.90;;;;;;6244987;22;20034;-86
2021/07/03 12:03:36;;;;;;;10.95;8.00;;;22.30;75.00;;;;;;6220086;23;20396;-87
2021/07/03 12:06:06;;;;;;;10.98;8.40;;;22.30;75.00;;;;;;6245299;23;20479;-87
2021/07/03 12:08:36;;;;;;;10.45;9.05;;;22.30;75.10;;;;;;6220292;23;20498;-85
2021/07/03 12:11:07;;;;;;;13.10;9.05;;;22.40;75.20;;;;;;6219821;23;20392;-86
2021/07/03 12:14:13;;;;;;;10.50;8.40;;;22.40;75.10;;;;;;6220418;23;20083;-90
2021/07/03 12:16:41;;;;;;;9.95;8.80;;;22.40;75.10;;;;;;6231681;23;20020;-87
2021/07/03 12:19:08;;;;;;;11.32;8.63;;;22.40;75.10;;;;;;6220113;23;20020;-87
2021/07/03 12:21:35;;;;;;;14.10;8.27;;;22.30;75.20;;;;;;6220290;23;20087;-86
2021/07/03 12:24:04;;;;;;;12.15;8.15;;;22.30;75.30;;;;;;6220153;23;20095;-85
2021/07/03 12:26:34;;;;;;;11.98;8.10;;;22.30;75.20;;;;;;6220262;23;20471;-86
2021/07/03 12:29:04;;;;;;;11.35;7.90;;;22.30;75.20;;;;;;6245003;23;20019;-86
2021/07/03 12:31:33;;;;;;;10.52;7.63;;;22.30;75.10;;;;;;6220356;23;20091;-86
2021/07/03 12:34:12;;;;;;;9.15;6.97;;;22.30;75.20;;;;;;6245079;23;20012;-86
2021/07/03 12:36:42;;;;;;;9.82;6.43;;;22.40;75.30;;;;;;6246491;23;20079;-85
2021/07/03 12:39:21;;;;;;;10.20;7.07;;;22.30;75.00;;;;;;6219858;23;20012;-85
2021/07/03 12:42:03;;;;;;;8.10;5.70;;;22.40;74.80;;;;;;6219590;23;20016;-85
2021/07/03 12:44:35;;;;;;;8.48;6.28;;;22.40;74.50;;;;;;6245998;23;20354;-85
2021/07/03 12:47:04;;;;;;;10.15;6.47;;;22.40;74.10;;;;;;6219827;23;20012;-85
2021/07/03 12:49:43;;;;;;;7.03;6.32;;;22.40;73.80;;;;;;6219783;23;20525;-86